Flight Track Log - Related Links

Times and Time Zones

All times are in EDT time to prevent confusion due to time zone crossing. See the SWA492 flight status page for this flight to view local times or setup timezone preferences in your user account.

Time Position Orientation Groundspeed Altitude Reporting Facility
EDT Latitude Longitude Course Direction KTS MPH feet Rate Location/Type
Sat 01:40:15 AM 33.9500 -118.4833 231° Southwest 202 232 2,300  Level Southern California TRACON
Sat 01:41:34 AM 33.8919 -118.5686 177° South 237 273 4,800 2,201 Climbing Los Angeles Center
Sat 01:42:34 AM 33.8147 -118.5639 163° South 240 276 7,400 2,500 Climbing Los Angeles Center
Sat 01:43:34 AM 33.7339 -118.5342 120° Southeast 259 298 9,800 1,950 Climbing Los Angeles Center
Sat 01:44:34 AM 33.6919 -118.4456 82° East 271 312 11,300 1,700 Climbing Los Angeles Center
Sat 01:45:34 AM 33.7044 -118.3333 69° East 260 299 13,200 2,100 Climbing Los Angeles Center
Sat 01:46:34 AM 33.7419 -118.2169 73° East 313 360 15,500 2,400 Climbing Los Angeles Center
Sat 01:47:34 AM 33.7733 -118.0953 48° Northeast 329 379 18,000 2,100 Climbing Los Angeles Center
Sat 01:48:34 AM 33.8478 -117.9969 36° Northeast 362 417 19,700 2,000 Climbing Los Angeles Center
Sat 01:49:34 AM 33.9367 -117.9189 37° Northeast 377 434 22,000 2,100 Climbing Los Angeles Center
Sat 01:50:34 AM 34.0297 -117.8356 41° Northeast 393 452 23,900 1,750 Climbing Los Angeles Center
Sat 01:51:34 AM 34.1250 -117.7347 49° Northeast 407 468 25,500 1,600 Climbing Los Angeles Center
Sat 01:52:34 AM 34.2036 -117.6258 49° Northeast 407 468 27,100 1,450 Climbing Los Angeles Center
Sat 01:53:34 AM 34.2864 -117.5092 47° Northeast 433 498 28,400 1,350 Climbing Los Angeles Center
Sat 01:54:34 AM 34.3753 -117.3947 49° Northeast 446 513 29,800 1,400 Climbing Los Angeles Center
Sat 01:55:34 AM 34.4558 -117.2825 51° Northeast 446 513 31,200 1,600 Climbing Los Angeles Center
Sat 01:56:34 AM 34.5278 -117.1753 59° Northeast 455 524 33,000 1,550 Climbing Los Angeles Center
Sat 01:57:34 AM 34.5933 -117.0447 62° Northeast 455 524 34,300 1,300 Climbing Los Angeles Center
Sat 01:58:34 AM 34.6528 -116.9092 62° Northeast 450 518 35,600 1,200 Climbing Los Angeles Center
Sat 01:59:34 AM 34.7100 -116.7756 60° Northeast 445 512 36,700 700 Climbing Los Angeles Center
Sat 02:00:34 AM 34.7733 -116.6422 58° Northeast 445 512 37,000 150 Climbing Los Angeles Center
Sat 02:01:34 AM 34.8406 -116.5111 60° Northeast 445 512 37,000  Level Los Angeles Center
Sat 02:02:34 AM 34.9033 -116.3797 60° Northeast 450 518 37,000  Level Los Angeles Center
Sat 02:03:34 AM 34.9664 -116.2456 60° Northeast 450 518 37,000  Level Los Angeles Center
Sat 02:04:34 AM 35.0289 -116.1136 58° Northeast 445 512 37,000  Level Los Angeles Center
Sat 02:05:34 AM 35.0956 -115.9817 60° Northeast 445 512 37,000  Level Los Angeles Center
Sat 02:06:34 AM 35.1581 -115.8469 60° Northeast 445 512 37,000  Level Los Angeles Center
Sat 02:07:34 AM 35.2203 -115.7144 59° Northeast 445 512 37,000  Level Los Angeles Center
Sat 02:08:34 AM 35.2928 -115.5639 60° Northeast 452 520 37,000  Level Los Angeles Center
Sat 02:09:34 AM 35.3567 -115.4286 60° Northeast 457 526 37,000  Level Los Angeles Center
Sat 02:10:34 AM 35.4206 -115.2928 60° Northeast 457 526 37,000  Level Los Angeles Center
Sat 02:11:34 AM 35.4842 -115.1569 60° Northeast 457 526 37,000  Level Los Angeles Center
Sat 02:12:34 AM 35.5478 -115.0236 60° Northeast 457 526 37,000  Level Los Angeles Center
Sat 02:13:34 AM 35.6111 -114.8872 60° Northeast 457 526 37,000  Level Los Angeles Center
Sat 02:14:34 AM 35.6744 -114.7508 60° Northeast 452 520 37,000  Level Los Angeles Center
Sat 02:15:34 AM 35.7375 -114.6167 60° Northeast 452 520 37,000  Level Los Angeles Center
Sat 02:16:34 AM 35.8003 -114.4800 61° Northeast 452 520 37,000  Level Los Angeles Center
Sat 02:17:34 AM 35.8631 -114.3403 61° Northeast 452 520 37,000  Level Los Angeles Center
Sat 02:18:34 AM 35.9258 -114.2028 60° Northeast 452 520 37,000  Level Los Angeles Center
Sat 02:19:34 AM 35.9903 -114.0628 61° Northeast 452 520 37,000  Level Los Angeles Center
Sat 02:20:34 AM 36.0525 -113.9225 60° Northeast 452 520 37,000  Level Los Angeles Center
Sat 02:21:34 AM 36.1167 -113.7844 62° Northeast 457 526 37,000  Level Los Angeles Center
Sat 02:22:34 AM 36.1764 -113.6439 61° Northeast 462 532 37,000  Level Los Angeles Center
Sat 02:23:34 AM 36.2403 -113.5003 60° Northeast 467 537 37,000  Level Los Angeles Center
Sat 02:24:34 AM 36.3039 -113.3614 62° Northeast 462 532 37,000  Level Los Angeles Center
Sat 02:25:34 AM 36.3533 -113.2464 60° Northeast 462 532 37,000  Level Los Angeles Center
Sat 02:26:34 AM 36.4247 -113.0917 62° Northeast 467 537 37,000  Level Los Angeles Center
Sat 02:27:34 AM 36.4878 -112.9469 62° Northeast 467 537 37,000  Level Los Angeles Center
Sat 02:28:34 AM 36.5506 -112.8025 62° Northeast 467 537 37,000  Level Los Angeles Center
Sat 02:29:34 AM 36.6114 -112.6603 62° Northeast 467 537 37,000  Level Los Angeles Center
Sat 02:31:14 AM 36.7153 -112.4153 62° Northeast 463 533 37,000  Level Denver Center
Sat 02:32:14 AM 36.7769 -112.2675 61° Northeast 468 539 37,000  Level Denver Center
Sat 02:33:14 AM 36.8428 -112.1194 62° Northeast 474 545 37,000  Level Denver Center
Sat 02:34:14 AM 36.9044 -111.9711 62° Northeast 479 551 37,000  Level Denver Center
Sat 02:35:14 AM 36.9678 -111.8203 63° Northeast 479 551 37,000  Level Denver Center
Sat 02:36:14 AM 37.0289 -111.6711 62° Northeast 479 551 37,000  Level Denver Center
Sat 02:37:14 AM 37.0919 -111.5247 62° Northeast 479 551 37,000  Level Denver Center
Sat 02:38:14 AM 37.1547 -111.3756 63° Northeast 479 551 37,000  Level Denver Center
Sat 02:39:14 AM 37.2200 -111.2131 62° Northeast 479 551 37,000  Level Denver Center
Sat 02:40:14 AM 37.2825 -111.0658 63° Northeast 479 551 37,000  Level Denver Center
Sat 02:41:14 AM 37.3425 -110.9183 63° Northeast 479 551 37,000  Level Denver Center
Sat 02:42:14 AM 37.4044 -110.7678 62° Northeast 479 551 37,000  Level Denver Center
Sat 02:43:14 AM 37.4664 -110.6200 60° Northeast 479 551 37,000  Level Denver Center
Sat 02:44:14 AM 37.5275 -110.4847 63° Northeast 484 557 37,000  Level Denver Center
Sat 02:45:14 AM 37.5936 -110.3208 64° Northeast 484 557 37,000  Level Denver Center
Sat 02:46:14 AM 37.6528 -110.1692 62° Northeast 479 551 37,000  Level Denver Center
Sat 02:47:14 AM 37.7069 -110.0408 63° Northeast 473 544 37,000  Level Denver Center
Sat 02:48:14 AM 37.7681 -109.8889 64° Northeast 473 544 37,000  Level Denver Center
Sat 02:49:14 AM 37.8311 -109.7239 63° Northeast 473 544 37,000  Level Denver Center
Sat 02:50:14 AM 37.8917 -109.5714 63° Northeast 478 550 37,000  Level Denver Center
Sat 02:51:14 AM 37.9475 -109.4342 64° Northeast 478 550 37,000  Level Denver Center
Sat 02:52:14 AM 38.0056 -109.2811 64° Northeast 478 550 37,000  Level Denver Center
Sat 02:53:14 AM 38.0636 -109.1278 64° Northeast 476 548 37,000  Level Denver Center
Sat 02:54:14 AM 38.1278 -108.9589 63° Northeast 481 554 37,000  Level Denver Center
Sat 02:55:14 AM 38.1872 -108.8078 64° Northeast 481 554 37,000  Level Denver Center
Sat 02:56:14 AM 38.2381 -108.6719 64° Northeast 476 548 37,000  Level Denver Center
Sat 02:57:14 AM 38.2972 -108.5150 64° Northeast 476 548 37,000  Level Denver Center
Sat 02:58:14 AM 38.3628 -108.3450 65° Northeast 481 554 37,000  Level Denver Center
Sat 02:59:14 AM 38.4192 -108.1928 64° Northeast 481 554 37,000  Level Denver Center
Sat 03:00:14 AM 38.4736 -108.0481 64° Northeast 481 554 37,000  Level Denver Center
Sat 03:01:14 AM 38.5383 -107.8744 65° Northeast 481 554 37,000  Level Denver Center
Sat 03:02:14 AM 38.5942 -107.7214 64° Northeast 481 554 37,000  Level Denver Center
Sat 03:03:14 AM 38.6522 -107.5683 65° Northeast 481 554 37,000  Level Denver Center
Sat 03:04:14 AM 38.7036 -107.4256 65° Northeast 481 554 37,000  Level Denver Center
Sat 03:05:14 AM 38.7653 -107.2558 65° Northeast 476 548 37,000  Level Denver Center
Sat 03:06:14 AM 38.8203 -107.1072 65° Northeast 482 555 37,000  Level Denver Center
Sat 03:07:14 AM 38.8711 -106.9664 65° Northeast 477 549 37,000  Level Denver Center
Sat 03:08:14 AM 38.9258 -106.8122 65° Northeast 477 549 37,000  Level Denver Center
Sat 03:09:14 AM 38.9867 -106.6414 65° Northeast 477 549 37,000  Level Denver Center
Sat 03:10:14 AM 39.0431 -106.4867 66° East 477 549 37,000  Level Denver Center
Sat 03:11:14 AM 39.0931 -106.3447 66° East 482 555 37,000 -950 Level Denver Center
Sat 03:12:14 AM 39.1472 -106.1867 65° Northeast 477 549 35,100 -2,650 Descending Denver Center
Sat 03:13:14 AM 39.2092 -106.0122 67° East 482 555 31,700 -3,250 Descending Denver Center
Sat 03:14:14 AM 39.2583 -105.8644 65° Northeast 464 534 28,600 -3,150 Descending Denver Center
Sat 03:15:14 AM 39.3117 -105.7164 66° East 452 520 25,400 -2,900 Descending Denver Center
Sat 03:16:14 AM 39.3589 -105.5764 62° Northeast 433 498 22,800 -2,200 Descending Denver Center
Sat 03:17:14 AM 39.4058 -105.4600 61° Northeast 419 482 21,000 -2,350 Descending Denver Center
Sat 03:18:14 AM 39.4589 -105.3383 61° Northeast 396 456 18,100 -2,600 Descending Denver Center
Sat 03:19:14 AM 39.5097 -105.2192 60° Northeast 376 433 15,800 -2,500 Descending Denver Center
Sat 03:20:14 AM 39.5586 -105.1078 61° Northeast 366 421 13,100 -2,400 Descending Denver Center
Sat 03:21:14 AM 39.6031 -105.0017 61° Northeast 343 395 11,000 -1,850 Descending Denver Center
Sat 03:22:14 AM 39.6475 -104.8983 54° Northeast 311 358 9,400 -1,132 Descending Denver Center
Sat 03:23:00 AM 39.6833 -104.8333 57° Northeast 260 299 9,000 -736 Descending Denver TRACON
Sat 03:24:00 AM 39.7167 -104.7667 57° Northeast 220 253 8,100 -900 Descending Denver TRACON
Sat 03:25:00 AM 39.7500 -104.7000 38° Northeast 191 220 7,200 -800 Descending Denver TRACON
Sat 03:26:00 AM 39.7833 -104.6667 360° North 148 170 6,500 -750 Descending Denver TRACON
Sat 03:27:00 AM 39.8167 -104.6667 21° North 137 158 5,700 -800 Descending Denver TRACON
Sat 03:34:32 AM 40.6807 -104.2292 201° Southwest  Level FlightAware Approximate
Sat 03:35:32 AM 40.5668 -104.2876 201° Southwest  Level FlightAware Approximate
Sat 03:36:32 AM 40.4528 -104.3457 201° Southwest  Level FlightAware Approximate

Login

Don't have an account? Register now (free) for customized features, flight alerts, and more!